createdAt,value
2022-09-14T00:01:24.681Z,17.70
2022-09-14T00:03:58.277Z,20.55
2022-09-14T00:06:25.620Z,17.15
2022-09-14T00:08:54.038Z,20.70
2022-09-14T00:11:22.943Z,17.73
2022-09-14T00:13:50.310Z,18.27
2022-09-14T00:16:26.331Z,19.55
2022-09-14T00:18:56.377Z,19.80
2022-09-14T00:21:24.482Z,20.33
2022-09-14T00:23:51.013Z,18.55
2022-09-14T00:26:20.710Z,18.98
2022-09-14T00:28:50.666Z,20.55
2022-09-14T00:31:18.529Z,22.35
2022-09-14T00:33:49.797Z,20.42
2022-09-14T00:36:22.513Z,18.95
2022-09-14T00:38:49.709Z,21.63
2022-09-14T00:41:22.142Z,23.50
2022-09-14T00:44:09.950Z,23.13
2022-09-14T00:46:48.129Z,22.52
2022-09-14T00:49:20.530Z,19.98
2022-09-14T00:51:58.730Z,19.92
2022-09-14T00:54:26.169Z,23.35
2022-09-14T00:56:54.121Z,22.23
2022-09-14T00:59:25.485Z,25.35
2022-09-14T01:01:52.080Z,21.90
2022-09-14T01:04:18.796Z,21.65
2022-09-14T01:06:54.218Z,20.17
2022-09-14T01:09:20.665Z,18.38
2022-09-14T01:11:54.150Z,18.90
2022-09-14T01:14:45.406Z,17.98
2022-09-14T01:17:50.751Z,23.25
2022-09-14T01:20:39.827Z,17.17
2022-09-14T01:23:24.759Z,19.30
2022-09-14T01:26:16.096Z,20.73
2022-09-14T01:28:50.980Z,23.48
2022-09-14T01:31:39.312Z,25.30
2022-09-14T01:34:13.833Z,26.45
2022-09-14T01:36:45.813Z,25.13
2022-09-14T01:39:14.822Z,19.73
2022-09-14T01:41:42.320Z,20.48
2022-09-14T01:44:16.234Z,24.77
2022-09-14T01:47:08.445Z,20.73
2022-09-14T01:49:43.989Z,22.98
2022-09-14T01:52:31.531Z,24.45
2022-09-14T01:55:05.813Z,27.05
2022-09-14T01:57:56.073Z,24.00
2022-09-14T02:00:23.075Z,21.77
2022-09-14T02:03:01.322Z,25.83
2022-09-14T02:05:52.882Z,19.08
2022-09-14T02:08:19.614Z,25.52
2022-09-14T02:10:46.600Z,23.25
2022-09-14T02:13:13.759Z,23.50
2022-09-14T02:15:40.413Z,25.95
2022-09-14T02:18:07.037Z,23.88
2022-09-14T02:20:37.580Z,19.88
2022-09-14T02:23:04.513Z,24.45
2022-09-14T02:25:31.853Z,23.75
2022-09-14T02:27:58.381Z,20.58
2022-09-14T02:30:25.669Z,24.63
2022-09-14T02:33:19.229Z,27.40
2022-09-14T02:35:51.651Z,22.35
2022-09-14T02:38:49.619Z,25.63
2022-09-14T02:41:37.042Z,26.80
2022-09-14T02:44:15.177Z,19.52
2022-09-14T02:46:56.423Z,24.83
2022-09-14T02:49:29.918Z,25.40
2022-09-14T02:52:27.034Z,28.67
2022-09-14T02:54:58.977Z,23.15
2022-09-14T02:57:26.148Z,25.33
2022-09-14T02:59:55.654Z,22.60
2022-09-14T03:02:22.775Z,21.65
2022-09-14T03:04:49.366Z,24.95
2022-09-14T03:07:15.878Z,23.30
2022-09-14T03:09:42.557Z,21.70
2022-09-14T03:12:09.103Z,24.40
2022-09-14T03:14:35.601Z,19.42
2022-09-14T03:17:02.110Z,19.38
2022-09-14T03:19:28.598Z,24.92
2022-09-14T03:21:55.101Z,16.85
2022-09-14T03:24:21.807Z,15.77
2022-09-14T03:26:52.019Z,18.85
2022-09-14T03:29:18.545Z,17.10
2022-09-14T03:31:45.145Z,13.13
2022-09-14T03:34:11.714Z,19.02
2022-09-14T03:36:38.227Z,16.80
2022-09-14T03:39:04.722Z,15.65
2022-09-14T03:41:31.265Z,13.85
2022-09-14T03:43:57.766Z,15.18
2022-09-14T03:46:25.218Z,16.02
2022-09-14T03:48:53.630Z,16.45
2022-09-14T03:51:20.152Z,17.55
2022-09-14T03:53:46.882Z,18.75
2022-09-14T03:56:19.835Z,17.23
2022-09-14T03:58:48.218Z,15.35
2022-09-14T04:01:17.771Z,16.33
2022-09-14T04:03:45.241Z,16.25
2022-09-14T04:06:12.347Z,13.27
2022-09-14T04:08:41.087Z,14.18
2022-09-14T04:11:19.110Z,13.68
2022-09-14T04:13:46.554Z,12.00
2022-09-14T04:16:13.725Z,13.65
2022-09-14T04:18:40.397Z,15.10
2022-09-14T04:21:11.309Z,11.13
2022-09-14T04:24:02.944Z,17.13
2022-09-14T04:26:27.176Z,12.23
2022-09-14T04:28:55.179Z,12.65
2022-09-14T04:31:21.874Z,12.93
2022-09-14T04:33:50.534Z,12.68
2022-09-14T04:36:19.785Z,14.93
2022-09-14T04:38:46.767Z,14.88
2022-09-14T04:41:15.626Z,12.50
2022-09-14T04:43:44.032Z,13.65
2022-09-14T04:46:19.828Z,9.90
2022-09-14T04:48:47.107Z,11.40
2022-09-14T04:51:19.390Z,10.30
2022-09-14T04:53:47.897Z,11.27
2022-09-14T04:56:15.680Z,11.57
2022-09-14T04:58:48.251Z,12.63
2022-09-14T05:01:19.755Z,12.98
2022-09-14T05:03:46.695Z,11.50
2022-09-14T05:06:16.057Z,11.70
2022-09-14T05:08:43.462Z,10.98
2022-09-14T05:11:13.418Z,13.13
2022-09-14T05:13:40.715Z,13.52
2022-09-14T05:16:10.490Z,12.88
2022-09-14T05:18:37.462Z,16.05
2022-09-14T05:21:10.271Z,12.93
2022-09-14T05:23:37.088Z,12.68
2022-09-14T05:26:04.901Z,15.30
2022-09-14T05:28:34.225Z,11.07
2022-09-14T05:31:08.159Z,10.73
2022-09-14T05:33:35.278Z,14.13
2022-09-14T05:36:04.174Z,11.93
2022-09-14T05:38:32.151Z,14.15
2022-09-14T05:40:58.756Z,11.48
2022-09-14T05:43:25.891Z,11.25
2022-09-14T05:45:52.574Z,11.73
2022-09-14T05:48:19.272Z,10.70
2022-09-14T05:50:45.798Z,11.27
2022-09-14T05:53:12.406Z,11.68
2022-09-14T05:55:38.929Z,9.77
2022-09-14T05:58:05.771Z,9.10
2022-09-14T06:00:32.286Z,11.38
2022-09-14T06:02:58.843Z,12.23
2022-09-14T06:05:25.460Z,11.32
2022-09-14T06:07:53.191Z,9.00
2022-09-14T06:10:21.309Z,9.48
2022-09-14T06:12:51.173Z,10.70
2022-09-14T06:15:20.033Z,10.88
2022-09-14T06:17:46.535Z,9.60
2022-09-14T06:20:13.047Z,9.63
2022-09-14T06:22:39.554Z,11.43
2022-09-14T06:25:06.555Z,9.75
2022-09-14T06:27:33.079Z,11.38
2022-09-14T06:29:59.612Z,11.23
2022-09-14T06:32:27.206Z,10.23
2022-09-14T06:34:53.735Z,13.13
2022-09-14T06:37:20.262Z,11.48
2022-09-14T06:39:46.843Z,11.07
2022-09-14T06:42:13.364Z,10.23
2022-09-14T06:44:40.216Z,10.82
2022-09-14T06:47:07.131Z,11.63
2022-09-14T06:49:33.728Z,11.32
2022-09-14T06:52:00.770Z,10.20
2022-09-14T06:54:27.896Z,9.85
2022-09-14T06:56:54.442Z,9.80
2022-09-14T06:59:20.977Z,11.05
2022-09-14T07:01:50.623Z,10.38
2022-09-14T07:04:17.829Z,11.07
2022-09-14T07:06:46.923Z,9.30
2022-09-14T07:09:14.482Z,13.88
2022-09-14T07:11:42.023Z,9.35
2022-09-14T07:14:09.353Z,10.55
2022-09-14T07:16:37.355Z,9.32
2022-09-14T07:19:06.716Z,9.85
2022-09-14T07:21:34.295Z,9.25
2022-09-14T07:24:01.054Z,9.35
2022-09-14T07:26:33.526Z,9.77
2022-09-14T07:29:04.713Z,9.10
2022-09-14T07:31:33.104Z,9.98
2022-09-14T07:34:04.619Z,9.55
2022-09-14T07:36:34.989Z,6.10
2022-09-14T07:39:02.843Z,7.88
2022-09-14T07:41:30.611Z,8.90
2022-09-14T07:44:00.194Z,8.18
2022-09-14T07:46:28.981Z,6.75
2022-09-14T07:49:00.624Z,8.10
2022-09-14T07:51:28.237Z,6.88
2022-09-14T07:53:55.559Z,6.88
2022-09-14T07:56:22.295Z,5.95
2022-09-14T07:58:53.998Z,10.15
2022-09-14T08:01:21.874Z,6.43
2022-09-14T08:03:48.785Z,5.97
2022-09-14T08:06:23.711Z,8.18
2022-09-14T08:08:52.078Z,5.53
2022-09-14T08:11:30.347Z,7.18
2022-09-14T08:14:11.262Z,9.40
2022-09-14T08:16:39.140Z,7.03
2022-09-14T08:19:11.637Z,6.47
2022-09-14T08:21:42.778Z,8.45
2022-09-14T08:24:13.460Z,8.77
2022-09-14T08:26:40.710Z,7.65
2022-09-14T08:29:07.901Z,6.75
2022-09-14T08:31:38.692Z,6.70
2022-09-14T08:34:06.230Z,9.35
2022-09-14T08:36:35.306Z,10.45
2022-09-14T08:39:02.296Z,7.35
2022-09-14T08:41:32.926Z,6.88
2022-09-14T08:44:16.589Z,7.57
2022-09-14T08:46:51.368Z,8.85
2022-09-14T08:49:24.392Z,10.55
2022-09-14T08:51:51.815Z,6.15
2022-09-14T08:54:18.811Z,7.93
2022-09-14T08:56:50.725Z,8.77
2022-09-14T08:59:31.370Z,7.72
2022-09-14T09:02:03.461Z,6.03
2022-09-14T09:04:48.875Z,7.25
2022-09-14T09:07:33.477Z,9.85
2022-09-14T09:10:01.223Z,6.70
2022-09-14T09:12:39.673Z,8.00
2022-09-14T09:15:42.064Z,7.32
2022-09-14T09:18:39.208Z,8.13
2022-09-14T09:21:20.021Z,6.68
2022-09-14T09:23:46.873Z,8.60
2022-09-14T09:26:26.992Z,6.22
2022-09-14T09:28:56.911Z,9.13
2022-09-14T09:31:32.935Z,8.02
2022-09-14T09:34:00.687Z,6.15
2022-09-14T09:36:33.941Z,8.88
2022-09-14T09:39:04.438Z,6.47
2022-09-14T09:41:47.333Z,6.13
2022-09-14T09:44:14.657Z,6.78
2022-09-14T09:46:57.961Z,6.85
2022-09-14T09:49:31.874Z,5.32
2022-09-14T09:52:14.469Z,4.72
2022-09-14T09:54:43.824Z,5.45
2022-09-14T09:57:34.610Z,6.68
2022-09-14T10:00:13.867Z,7.22
2022-09-14T10:02:41.442Z,4.70
2022-09-14T10:05:10.999Z,6.13
2022-09-14T10:07:48.670Z,6.38
2022-09-14T10:10:17.546Z,9.02
2022-09-14T10:12:53.088Z,6.05
2022-09-14T10:15:25.934Z,6.35
2022-09-14T10:18:11.028Z,4.97
2022-09-14T10:21:08.138Z,6.55
2022-09-14T10:23:39.466Z,5.55
2022-09-14T10:26:12.849Z,5.03
2022-09-14T10:28:44.843Z,5.00
2022-09-14T10:31:20.009Z,4.25
2022-09-14T10:33:49.846Z,5.50
2022-09-14T10:36:37.337Z,5.35
2022-09-14T10:39:29.777Z,5.93
2022-09-14T10:42:07.577Z,4.70
2022-09-14T10:44:59.430Z,6.60
2022-09-14T10:47:44.746Z,6.60
2022-09-14T10:51:04.891Z,4.50
2022-09-14T10:53:55.455Z,4.97
2022-09-14T10:56:48.456Z,7.57
2022-09-14T10:59:27.670Z,7.13
2022-09-14T11:02:27.070Z,5.18
2022-09-14T11:05:14.501Z,5.75
2022-09-14T11:07:58.999Z,6.28
2022-09-14T11:10:33.837Z,5.68
2022-09-14T11:13:25.322Z,5.28
2022-09-14T11:16:30.597Z,5.50
2022-09-14T11:19:18.907Z,8.60
2022-09-14T11:22:09.199Z,7.70
2022-09-14T11:24:46.811Z,9.40
2022-09-14T11:27:29.194Z,8.50
2022-09-14T11:30:05.494Z,9.63
2022-09-14T11:32:38.999Z,7.60
2022-09-14T11:35:25.385Z,9.90
2022-09-14T11:38:00.767Z,8.75
2022-09-14T11:40:41.651Z,8.32
2022-09-14T11:43:16.020Z,9.73
2022-09-14T11:45:55.113Z,10.57
2022-09-14T11:48:46.182Z,9.75
2022-09-14T11:51:19.254Z,9.90
2022-09-14T11:53:46.410Z,12.07
2022-09-14T11:56:26.191Z,10.23
2022-09-14T11:58:54.987Z,10.85
2022-09-14T12:01:36.951Z,10.40
2022-09-14T12:04:12.928Z,10.20
2022-09-14T12:06:39.442Z,9.38
2022-09-14T12:09:20.784Z,11.20
2022-09-14T12:11:53.326Z,9.63
2022-09-14T12:14:29.504Z,11.05
2022-09-14T12:17:45.166Z,11.25
2022-09-14T12:20:23.593Z,12.73
2022-09-14T12:22:50.491Z,9.20
2022-09-14T12:25:20.549Z,10.50
2022-09-14T12:27:48.598Z,11.77
2022-09-14T12:30:40.920Z,11.18
2022-09-14T12:33:32.691Z,11.25
2022-09-14T12:36:22.360Z,10.93
2022-09-14T12:38:55.023Z,9.48
2022-09-14T12:41:21.483Z,8.55
2022-09-14T12:43:51.157Z,8.43
2022-09-14T12:46:20.932Z,10.88
2022-09-14T12:48:47.722Z,9.45
2022-09-14T12:51:36.480Z,8.40
2022-09-14T12:54:08.910Z,10.65
2022-09-14T12:57:00.257Z,8.80
2022-09-14T12:59:54.217Z,7.75
2022-09-14T13:02:58.946Z,10.60
2022-09-14T13:05:29.565Z,7.57
2022-09-14T13:07:56.722Z,8.45
2022-09-14T13:10:31.854Z,9.68
2022-09-14T13:15:44.723Z,9.25
2022-09-14T13:18:17.297Z,10.70
2022-09-14T13:20:52.142Z,8.38
2022-09-14T13:23:31.980Z,14.70
2022-09-14T13:25:59.266Z,10.80
2022-09-14T13:28:29.738Z,11.45
2022-09-14T13:30:58.838Z,11.50
2022-09-14T13:33:25.738Z,9.13
2022-09-14T13:35:55.059Z,11.73
2022-09-14T13:38:29.381Z,12.57
2022-09-14T13:41:05.281Z,10.25
2022-09-14T13:43:32.620Z,10.25
2022-09-14T13:45:59.302Z,10.50
2022-09-14T13:48:26.104Z,9.23
2022-09-14T13:50:52.851Z,8.95
2022-09-14T13:53:40.459Z,13.38
2022-09-14T13:56:20.327Z,10.35
2022-09-14T13:58:49.000Z,13.02
2022-09-14T14:01:29.092Z,11.40
2022-09-14T14:03:55.820Z,10.50
2022-09-14T14:06:22.407Z,11.18
2022-09-14T14:09:10.004Z,15.07
2022-09-14T14:11:51.983Z,12.60
2022-09-14T14:14:28.801Z,14.27
2022-09-14T14:17:20.186Z,15.60
2022-09-14T14:19:47.411Z,14.18
2022-09-14T14:22:13.866Z,19.60
2022-09-14T14:25:11.922Z,17.58
2022-09-14T14:27:37.937Z,17.27
2022-09-14T14:30:17.630Z,16.38
2022-09-14T14:32:49.248Z,21.08
2022-09-14T14:35:19.839Z,20.58
2022-09-14T14:37:47.684Z,13.90
2022-09-14T14:40:15.319Z,19.38
2022-09-14T14:42:42.628Z,18.88
2022-09-14T14:45:36.670Z,16.95
2022-09-14T14:48:04.341Z,16.67
2022-09-14T14:50:33.866Z,19.27
2022-09-14T14:53:01.510Z,15.85
2022-09-14T14:55:31.965Z,20.45
2022-09-14T14:58:00.959Z,17.73
2022-09-14T15:00:30.136Z,19.55
2022-09-14T15:02:56.646Z,20.95
2022-09-14T15:05:23.285Z,17.48
2022-09-14T15:07:52.350Z,22.02
2022-09-14T15:10:19.922Z,26.90
2022-09-14T15:12:46.484Z,24.13
2022-09-14T15:15:18.869Z,25.55
2022-09-14T15:17:45.546Z,21.02
2022-09-14T15:20:12.937Z,21.45
2022-09-14T15:22:43.420Z,23.73
2022-09-14T15:25:12.014Z,25.52
2022-09-14T15:27:39.361Z,27.40
2022-09-14T15:30:07.146Z,24.23
2022-09-14T15:32:33.718Z,21.58
2022-09-14T15:35:00.232Z,23.83
2022-09-14T15:37:27.139Z,26.27
2022-09-14T15:39:53.731Z,27.77
2022-09-14T15:42:20.378Z,27.38
2022-09-14T15:44:47.008Z,25.20
2022-09-14T15:47:14.644Z,22.33
2022-09-14T15:49:42.259Z,22.60
2022-09-14T15:52:10.930Z,19.95
2022-09-14T15:54:38.764Z,19.63
2022-09-14T15:57:08.350Z,22.63
2022-09-14T15:59:35.174Z,22.75
2022-09-14T16:02:01.844Z,24.42
2022-09-14T16:04:28.903Z,26.45
2022-09-14T16:06:55.433Z,24.67
2022-09-14T16:09:22.480Z,25.80
2022-09-14T16:11:49.761Z,23.88
2022-09-14T16:14:16.319Z,26.88
2022-09-14T16:16:42.890Z,30.33
2022-09-14T16:19:13.231Z,29.25
2022-09-14T16:21:41.202Z,32.88
2022-09-14T16:24:12.141Z,28.98
2022-09-14T16:26:39.679Z,26.17
2022-09-14T16:29:08.385Z,28.63
2022-09-14T16:31:36.943Z,26.00
2022-09-14T16:34:07.585Z,31.88
2022-09-14T16:36:38.091Z,27.60
2022-09-14T16:39:07.778Z,24.95
2022-09-14T16:41:35.781Z,29.02
2022-09-14T16:44:03.878Z,24.25
2022-09-14T16:46:31.794Z,25.83
2022-09-14T16:48:58.700Z,21.08
2022-09-14T16:51:27.770Z,29.73
2022-09-14T16:53:54.782Z,23.73
2022-09-14T16:56:23.687Z,24.45
2022-09-14T16:58:52.710Z,25.60
2022-09-14T17:01:21.134Z,25.77
2022-09-14T17:03:50.464Z,24.17
2022-09-14T17:06:20.032Z,22.83
2022-09-14T17:08:47.704Z,31.98
2022-09-14T17:11:15.634Z,30.95
2022-09-14T17:13:44.196Z,29.88
2022-09-14T17:16:14.116Z,24.45
2022-09-14T17:18:43.085Z,28.80
2022-09-14T17:21:13.117Z,32.67
2022-09-14T17:23:40.953Z,31.50
2022-09-14T17:26:10.067Z,25.65
2022-09-14T17:28:37.881Z,26.27
2022-09-14T17:31:06.903Z,29.88
2022-09-14T17:33:35.634Z,20.73
2022-09-14T17:36:05.261Z,13.50
2022-09-14T17:38:34.785Z,10.02
2022-09-14T17:41:10.722Z,14.55
2022-09-14T17:43:38.720Z,19.80
2022-09-14T17:46:07.079Z,25.80
2022-09-14T17:48:35.617Z,27.30
2022-09-14T17:51:10.865Z,10.93
2022-09-14T17:53:42.474Z,9.45
2022-09-14T17:56:11.680Z,9.95
2022-09-14T17:58:39.017Z,11.00
2022-09-14T18:01:06.938Z,9.13
2022-09-14T18:03:33.728Z,9.63
2022-09-14T18:06:01.146Z,10.45
2022-09-14T18:08:27.664Z,7.60
2022-09-14T18:10:54.177Z,7.28
2022-09-14T18:13:20.794Z,5.90
2022-09-14T18:15:47.557Z,5.93
2022-09-14T18:18:14.147Z,9.40
2022-09-14T18:20:40.691Z,5.78
2022-09-14T18:23:07.257Z,6.50
2022-09-14T18:25:33.863Z,5.88
2022-09-14T18:28:00.379Z,3.42
2022-09-14T18:30:26.971Z,6.85
2022-09-14T18:32:53.756Z,7.05
2022-09-14T18:35:20.379Z,5.53
2022-09-14T18:37:46.891Z,5.35
2022-09-14T18:40:16.118Z,3.70
2022-09-14T18:42:46.633Z,6.22
2022-09-14T18:45:13.125Z,6.57
2022-09-14T18:47:39.663Z,7.90
2022-09-14T18:50:06.685Z,5.82
2022-09-14T18:52:33.361Z,5.90
2022-09-14T18:54:59.871Z,5.78
2022-09-14T18:57:27.822Z,4.65
2022-09-14T18:59:54.581Z,4.00
2022-09-14T19:02:21.257Z,5.85
2022-09-14T19:04:48.617Z,6.50
2022-09-14T19:07:15.123Z,5.80
2022-09-14T19:09:41.757Z,5.50
2022-09-14T19:12:08.270Z,4.88
2022-09-14T19:14:34.775Z,6.38
2022-09-14T19:17:01.483Z,6.10
2022-09-14T19:19:27.985Z,5.53
2022-09-14T19:21:54.527Z,6.65
2022-09-14T19:24:21.148Z,5.00
2022-09-14T19:26:51.716Z,5.40
2022-09-14T19:29:22.840Z,5.45
2022-09-14T19:31:53.370Z,5.40
2022-09-14T19:34:21.801Z,8.15
2022-09-14T19:36:48.685Z,4.97
2022-09-14T19:39:15.761Z,4.95
2022-09-14T19:41:42.683Z,5.43
2022-09-14T19:44:11.201Z,10.25
2022-09-14T19:46:39.421Z,4.13
2022-09-14T19:49:13.229Z,4.05
2022-09-14T19:51:39.921Z,4.57
2022-09-14T19:54:06.606Z,5.05
2022-09-14T19:56:33.190Z,6.20
2022-09-14T19:59:01.359Z,5.78
2022-09-14T20:01:29.963Z,7.90
2022-09-14T20:03:57.175Z,4.43
2022-09-14T20:06:31.349Z,5.95
2022-09-14T20:09:05.598Z,4.28
2022-09-14T20:11:34.825Z,5.40
2022-09-14T20:14:03.169Z,3.83
2022-09-14T20:16:33.002Z,5.50
2022-09-14T20:19:07.137Z,6.00
2022-09-14T20:21:35.950Z,4.53
2022-09-14T20:24:15.765Z,4.50
2022-09-14T20:26:47.832Z,2.55
2022-09-14T20:29:16.305Z,4.75
2022-09-14T20:31:43.403Z,6.30
2022-09-14T20:34:10.613Z,5.10
2022-09-14T20:36:37.712Z,5.07
2022-09-14T20:39:04.505Z,3.88
2022-09-14T20:41:33.182Z,4.75
2022-09-14T20:43:59.830Z,4.28
2022-09-14T20:46:31.424Z,7.35
2022-09-14T20:48:58.509Z,5.70
2022-09-14T20:51:25.703Z,4.22
2022-09-14T20:53:52.873Z,5.50
2022-09-14T20:56:25.129Z,5.35
2022-09-14T20:58:57.138Z,3.95
2022-09-14T21:01:26.061Z,8.60
2022-09-14T21:03:53.346Z,4.78
2022-09-14T21:06:26.698Z,6.28
2022-09-14T21:08:53.483Z,6.57
2022-09-14T21:11:24.897Z,3.67
2022-09-14T21:13:53.763Z,3.65
2022-09-14T21:16:31.761Z,4.30
2022-09-14T21:19:07.192Z,3.88
2022-09-14T21:21:34.194Z,6.20
2022-09-14T21:24:01.394Z,5.55
2022-09-14T21:26:31.947Z,6.13
2022-09-14T21:29:00.802Z,5.72
2022-09-14T21:31:29.784Z,7.70
2022-09-14T21:33:58.788Z,6.65
2022-09-14T21:36:28.468Z,5.22
2022-09-14T21:38:57.461Z,9.38
2022-09-14T21:41:26.115Z,5.43
2022-09-14T21:43:53.432Z,4.70
2022-09-14T21:46:20.370Z,5.38
2022-09-14T21:48:47.186Z,5.72
2022-09-14T21:51:34.434Z,7.03
2022-09-14T21:54:06.439Z,4.07
2022-09-14T21:56:36.573Z,1.90
2022-09-14T21:59:05.939Z,2.42
2022-09-14T22:01:33.074Z,2.47
2022-09-14T22:04:00.051Z,1.25
2022-09-14T22:06:28.535Z,1.30
2022-09-14T22:09:00.908Z,1.48
2022-09-14T22:11:31.078Z,1.73
2022-09-14T22:14:07.987Z,2.03
2022-09-14T22:16:36.854Z,2.10
2022-09-14T22:19:08.706Z,2.53
2022-09-14T22:21:37.093Z,1.15
2022-09-14T22:24:06.534Z,1.15
2022-09-14T22:26:34.326Z,1.65
2022-09-14T22:29:01.534Z,1.63
2022-09-14T22:31:29.420Z,2.65
2022-09-14T22:33:57.445Z,1.05
2022-09-14T22:36:25.586Z,1.02
2022-09-14T22:38:55.578Z,1.15
2022-09-14T22:41:22.725Z,7.30
2022-09-14T22:43:49.434Z,2.28
2022-09-14T22:46:17.068Z,1.77
2022-09-14T22:48:44.519Z,3.58
2022-09-14T22:51:14.543Z,1.90
2022-09-14T22:53:41.446Z,1.70
2022-09-14T22:56:10.365Z,3.13
2022-09-14T22:58:37.789Z,2.72
2022-09-14T23:01:09.337Z,1.50
2022-09-14T23:03:35.943Z,1.60
2022-09-14T23:06:03.277Z,3.00
2022-09-14T23:08:30.689Z,2.92
2022-09-14T23:10:57.563Z,1.98
2022-09-14T23:13:24.232Z,6.55
2022-09-14T23:15:50.897Z,2.70
2022-09-14T23:18:17.393Z,3.53
2022-09-14T23:20:45.085Z,2.30
2022-09-14T23:23:12.114Z,1.73
2022-09-14T23:25:40.581Z,1.77
2022-09-14T23:28:10.030Z,5.28
2022-09-14T23:30:36.778Z,2.45
2022-09-14T23:33:03.596Z,3.55
2022-09-14T23:35:30.300Z,3.10
2022-09-14T23:37:57.225Z,2.38
2022-09-14T23:40:23.807Z,4.05
2022-09-14T23:42:50.740Z,6.57
2022-09-14T23:45:17.510Z,4.43
2022-09-14T23:47:45.871Z,5.75
2022-09-14T23:50:12.584Z,2.70
2022-09-14T23:52:40.141Z,3.40
2022-09-14T23:55:07.139Z,3.58
2022-09-14T23:57:33.697Z,9.77
